Delano, TN

8:00 AM EDT on August 31, 2015 (GMT -0400)
K4KNX | | Change Station
CLOSE
Current Station
Personal Weather Station
Location: Athens, TN
Elevation: 835 ft
Nearby Weather Stations

Elev 835 ft 35.33 °N, 84.60 °W | Updated 17 seconds ago

Overcast
Overcast
67.5 °F
Feels Like 67.5 °F
N
0.7
Wind Variable Wind from NW
Gusts 2.2 mph

Today
High -- | Low -- °F
--% Chance of Precip.
Yesterday
High -- | Low -- °F
Precip. -- in
7:10 AM 8:07 PM
Waning Gibbous, 96% visible
Pressure 30.14 in
Visibility 10.0 miles
Clouds Mostly Cloudy 4600 ft
Dew Point 67 °F
Humidity 99%
Rainfall 0.00 in
Snow Depth Not available.
UV 0 out of 12
Pollen 8.50 out of 12
Air Quality Not available.
Flu Activity Not available.
METAR KMMI 311115Z AUTO 00000KT 10SM BKN046 17/17 A3014 RMK
Pressure 30.14 in
Visibility 10.0 miles
Clouds Mostly Cloudy 4600 ft
Dew Point 67 °F
Humidity 99%
Rainfall 0.00 in
Snow Depth Not available.
UV 0 out of 12
Pollen 8.50 out of 12
Air Quality Not available.
Flu Activity Not available.
METAR KMMI 311115Z AUTO 00000KT 10SM BKN046 17/17 A3014 RMK

10-Day Weather Forecast

×

Almanac

Astronomy

Aug. 31, 2015 Rise Set
Actual Time
Civil Twilight
Nautical Twilight
Astronomical Twilight
Moon
Length of Visible Light
Length of Day
Tomorrow will be .
, % of the Moon is Illuminated

Today's Extremes

State Highs State Lows

Community

WunderPhotos

Upload Photos

1,851,218 photos uploaded!

WunderBlogs® & News

Nearby

Air Quality

  Air Quality AQ Index Pollutant
Not available.

Snow Depth

Station Depth Elevation

Earthquake Activity

City Distance Mag. Time & Date
Minimum magnitude displayed is 2.5.

Coastal Water Temperatures

Place Temperature

Stations

Nearby Weather Stations

Station Location Temp. Windchill Dew Point Humidity Wind Precip. Elev Updated Type